createdAt,value
2022-11-30T00:00:43.704Z,27.43
2022-11-30T00:04:09.498Z,24.00
2022-11-30T00:07:34.529Z,25.33
2022-11-30T00:10:58.710Z,23.37
2022-11-30T00:14:22.367Z,23.20
2022-11-30T00:17:46.961Z,26.73
2022-11-30T00:21:15.658Z,22.90
2022-11-30T00:24:39.820Z,24.93
2022-11-30T00:28:03.380Z,26.00
2022-11-30T00:31:26.923Z,25.23
2022-11-30T00:34:50.544Z,27.53
2022-11-30T00:38:15.410Z,25.60
2022-11-30T00:41:39.024Z,26.90
2022-11-30T00:45:02.604Z,25.60
2022-11-30T00:48:26.633Z,28.50
2022-11-30T00:51:50.237Z,31.63
2022-11-30T00:55:15.301Z,26.37
2022-11-30T00:58:39.002Z,30.67
2022-11-30T01:02:02.714Z,29.73
2022-11-30T01:05:27.040Z,24.40
2022-11-30T01:08:50.657Z,27.57
2022-11-30T01:12:15.551Z,32.83
2022-11-30T01:15:41.051Z,35.67
2022-11-30T01:19:06.000Z,33.00
2022-11-30T01:22:30.366Z,33.77
2022-11-30T01:25:57.237Z,34.07
2022-11-30T01:29:22.191Z,33.40
2022-11-30T01:32:46.513Z,32.83
2022-11-30T01:36:12.650Z,34.53
2022-11-30T01:39:36.496Z,34.60
2022-11-30T01:43:00.143Z,31.90
2022-11-30T01:46:37.630Z,30.50
2022-11-30T01:50:06.184Z,33.50
2022-11-30T01:53:29.904Z,33.00
2022-11-30T01:56:57.437Z,30.90
2022-11-30T02:00:21.565Z,28.10
2022-11-30T02:03:54.119Z,29.70
2022-11-30T02:07:17.917Z,34.90
2022-11-30T02:10:46.113Z,32.67
2022-11-30T02:14:21.300Z,29.60
2022-11-30T02:17:52.961Z,35.10
2022-11-30T02:21:24.528Z,34.67
2022-11-30T02:25:01.697Z,32.73
2022-11-30T02:28:55.861Z,30.57
2022-11-30T02:32:23.856Z,29.60
2022-11-30T02:35:54.808Z,32.60
2022-11-30T02:39:22.078Z,30.87
2022-11-30T02:42:45.901Z,32.83
2022-11-30T02:46:17.533Z,34.03
2022-11-30T02:49:49.815Z,38.17
2022-11-30T02:53:13.503Z,31.47
2022-11-30T02:56:37.215Z,34.90
2022-11-30T03:00:03.874Z,30.53
2022-11-30T03:03:28.904Z,27.20
2022-11-30T03:06:52.504Z,27.00
2022-11-30T03:10:16.413Z,29.60
2022-11-30T03:13:39.921Z,30.80
2022-11-30T03:17:03.572Z,35.73
2022-11-30T03:20:28.515Z,23.87
2022-11-30T03:23:52.168Z,29.17
2022-11-30T03:27:16.031Z,26.20
2022-11-30T03:30:39.723Z,29.83
2022-11-30T03:34:03.372Z,24.20
2022-11-30T03:37:28.423Z,24.00
2022-11-30T03:40:52.021Z,26.27
2022-11-30T03:44:15.827Z,24.10
2022-11-30T03:47:39.973Z,25.23
2022-11-30T03:51:04.309Z,22.30
2022-11-30T03:54:29.331Z,25.43
2022-11-30T03:57:53.139Z,24.50
2022-11-30T04:01:19.259Z,20.37
2022-11-30T04:04:42.937Z,24.33
2022-11-30T04:08:06.976Z,27.40
2022-11-30T04:11:31.890Z,22.53
2022-11-30T04:14:55.871Z,29.27
2022-11-30T04:18:21.057Z,23.80
2022-11-30T04:21:44.702Z,23.87
2022-11-30T04:25:09.184Z,26.53
2022-11-30T04:28:34.461Z,24.47
2022-11-30T04:31:57.968Z,23.33
2022-11-30T04:35:21.585Z,23.40
2022-11-30T04:38:45.417Z,23.87
2022-11-30T04:42:09.057Z,24.37
2022-11-30T04:45:35.579Z,22.57
2022-11-30T04:48:59.534Z,18.10
2022-11-30T04:52:23.158Z,18.90
2022-11-30T04:55:46.783Z,17.00
2022-11-30T04:59:10.501Z,31.00
2022-11-30T05:02:35.463Z,15.47
2022-11-30T05:05:59.012Z,18.60
2022-11-30T05:09:22.587Z,16.20
2022-11-30T05:12:46.102Z,13.83
2022-11-30T05:16:10.599Z,15.03
2022-11-30T05:19:35.576Z,14.67
2022-11-30T05:22:59.240Z,15.17
2022-11-30T05:26:22.804Z,12.60
2022-11-30T05:29:46.398Z,11.93
2022-11-30T05:33:10.312Z,11.53
2022-11-30T05:36:35.243Z,16.63
2022-11-30T05:39:58.787Z,13.73
2022-11-30T05:43:22.398Z,10.73
2022-11-30T05:46:46.087Z,12.40
2022-11-30T05:50:10.337Z,11.10
2022-11-30T05:53:35.267Z,12.90
2022-11-30T05:56:58.866Z,14.13
2022-11-30T06:00:23.296Z,10.20
2022-11-30T06:03:47.076Z,13.63
2022-11-30T06:07:11.914Z,13.47
2022-11-30T06:10:37.564Z,12.67
2022-11-30T06:14:01.132Z,13.03
2022-11-30T06:17:24.817Z,11.30
2022-11-30T06:20:48.437Z,14.37
2022-11-30T06:24:12.214Z,13.77
2022-11-30T06:27:37.161Z,14.17
2022-11-30T06:31:01.661Z,14.20
2022-11-30T06:34:25.288Z,11.03
2022-11-30T06:37:48.930Z,11.43
2022-11-30T06:41:12.732Z,13.97
2022-11-30T06:44:38.017Z,14.00
2022-11-30T06:48:01.645Z,10.80
2022-11-30T06:51:25.145Z,14.40
2022-11-30T06:54:49.080Z,11.53
2022-11-30T06:58:12.779Z,12.33
2022-11-30T07:01:37.651Z,13.13
2022-11-30T07:05:01.269Z,12.63
2022-11-30T07:08:25.113Z,11.20
2022-11-30T07:11:49.168Z,10.93
2022-11-30T07:15:12.791Z,12.97
2022-11-30T07:18:37.821Z,12.67
2022-11-30T07:22:02.607Z,11.70
2022-11-30T07:25:43.966Z,10.47
2022-11-30T07:29:07.815Z,11.13
2022-11-30T07:32:31.394Z,11.97
2022-11-30T07:35:56.685Z,11.27
2022-11-30T07:39:20.445Z,10.53
2022-11-30T07:42:44.047Z,12.20
2022-11-30T07:46:08.518Z,9.30
2022-11-30T07:49:32.210Z,10.93
2022-11-30T07:52:57.131Z,8.50
2022-11-30T07:56:21.815Z,11.63
2022-11-30T07:59:45.996Z,9.40
2022-11-30T08:03:10.649Z,11.87
2022-11-30T08:06:34.944Z,12.23
2022-11-30T08:10:00.448Z,8.80
2022-11-30T08:13:25.512Z,8.13
2022-11-30T08:16:51.755Z,8.10
2022-11-30T08:20:15.989Z,8.00
2022-11-30T08:23:42.640Z,10.20
2022-11-30T08:27:08.909Z,7.03
2022-11-30T08:30:33.326Z,8.73
2022-11-30T08:33:59.354Z,9.00
2022-11-30T08:37:23.702Z,10.80
2022-11-30T08:40:48.090Z,9.83
2022-11-30T08:44:13.937Z,11.07
2022-11-30T08:47:38.999Z,8.33
2022-11-30T08:51:03.004Z,8.20
2022-11-30T08:54:29.586Z,9.10
2022-11-30T08:57:53.561Z,8.90
2022-11-30T09:01:20.804Z,12.50
2022-11-30T09:04:44.538Z,11.20
2022-11-30T09:08:08.203Z,8.67
2022-11-30T09:11:33.424Z,11.13
2022-11-30T09:14:58.567Z,10.37
2022-11-30T09:18:24.434Z,11.07
2022-11-30T09:21:51.939Z,9.97
2022-11-30T09:25:16.204Z,12.13
2022-11-30T09:28:40.466Z,10.77
2022-11-30T09:32:04.270Z,14.33
2022-11-30T09:35:29.169Z,15.37
2022-11-30T09:38:52.805Z,15.57
2022-11-30T09:42:29.348Z,17.47
2022-11-30T09:45:57.735Z,19.80
2022-11-30T09:49:26.069Z,35.30
2022-11-30T09:52:54.049Z,23.10
2022-11-30T09:56:24.589Z,25.03
2022-11-30T09:59:55.569Z,20.57
2022-11-30T10:03:20.675Z,17.60
2022-11-30T10:06:51.430Z,19.00
2022-11-30T10:10:33.549Z,24.53
2022-11-30T10:14:10.505Z,16.93
2022-11-30T10:17:45.103Z,22.27
2022-11-30T10:21:27.097Z,18.37
2022-11-30T10:25:10.196Z,19.37
2022-11-30T10:28:47.887Z,27.57
2022-11-30T10:32:19.323Z,23.27
2022-11-30T10:35:45.381Z,23.13
2022-11-30T10:39:19.825Z,25.60
2022-11-30T10:42:47.612Z,28.47
2022-11-30T10:46:19.648Z,28.97
2022-11-30T10:49:49.237Z,30.37
2022-11-30T10:53:13.880Z,27.63
2022-11-30T10:56:37.657Z,23.70
2022-11-30T11:00:06.499Z,33.47
2022-11-30T11:03:32.328Z,28.20
2022-11-30T11:06:59.195Z,29.63
2022-11-30T11:10:28.365Z,34.87
2022-11-30T11:13:51.938Z,26.77
2022-11-30T11:17:26.303Z,23.10
2022-11-30T11:21:05.928Z,23.20
2022-11-30T11:24:30.389Z,23.33
2022-11-30T11:27:55.826Z,26.63
2022-11-30T11:31:30.992Z,29.00
2022-11-30T11:34:55.018Z,27.97
2022-11-30T11:38:27.057Z,24.83
2022-11-30T11:41:50.739Z,26.33
2022-11-30T11:45:19.318Z,29.50
2022-11-30T11:48:49.949Z,31.07
2022-11-30T11:52:18.843Z,34.80
2022-11-30T11:55:45.473Z,31.50
2022-11-30T11:59:16.259Z,31.43
2022-11-30T12:02:49.877Z,28.37
2022-11-30T12:06:16.688Z,30.77
2022-11-30T12:09:46.742Z,32.90
2022-11-30T12:13:16.884Z,31.33
2022-11-30T12:17:01.984Z,33.10
2022-11-30T12:20:33.808Z,36.83
2022-11-30T12:24:13.721Z,38.83
2022-11-30T12:27:49.110Z,33.77
2022-11-30T12:31:18.766Z,38.30
2022-11-30T12:34:54.002Z,36.50
2022-11-30T12:38:26.219Z,33.57
2022-11-30T12:41:53.870Z,36.77
2022-11-30T12:45:25.283Z,33.47
2022-11-30T12:49:09.961Z,35.90
2022-11-30T12:52:43.800Z,31.73
2022-11-30T12:56:20.115Z,34.33
2022-11-30T12:59:50.588Z,34.80
2022-11-30T13:03:40.513Z,40.67
2022-11-30T13:07:11.810Z,39.30
2022-11-30T13:10:41.230Z,43.20
2022-11-30T13:14:10.127Z,46.13
2022-11-30T13:17:34.604Z,36.97
2022-11-30T13:21:07.035Z,41.43
2022-11-30T13:24:37.024Z,48.63
2022-11-30T13:28:10.799Z,37.47
2022-11-30T13:31:39.822Z,45.43
2022-11-30T13:35:41.979Z,47.07
2022-11-30T13:39:30.483Z,48.17
2022-11-30T13:42:56.814Z,47.43
2022-11-30T13:46:23.625Z,48.83
2022-11-30T13:49:48.006Z,56.57
2022-11-30T13:53:35.868Z,55.77
2022-11-30T13:56:59.562Z,52.07
2022-11-30T14:01:02.965Z,55.90
2022-11-30T14:04:34.337Z,51.03
2022-11-30T14:08:35.334Z,42.80
2022-11-30T14:11:58.946Z,47.07
2022-11-30T14:15:51.067Z,58.43
2022-11-30T14:19:16.223Z,60.73
2022-11-30T14:22:41.878Z,51.40
2022-11-30T14:26:11.055Z,49.53
2022-11-30T14:29:37.777Z,43.10
2022-11-30T14:33:06.997Z,46.93
2022-11-30T14:36:40.167Z,51.83
2022-11-30T14:40:06.317Z,54.67
2022-11-30T14:43:29.876Z,42.77
2022-11-30T14:46:53.673Z,54.37
2022-11-30T14:50:23.941Z,55.63
2022-11-30T14:53:58.666Z,50.63
2022-11-30T14:57:32.350Z,46.20
2022-11-30T15:00:57.241Z,52.63
2022-11-30T15:04:20.936Z,50.83
2022-11-30T15:07:45.649Z,51.30
2022-11-30T15:11:12.506Z,51.17
2022-11-30T15:14:36.142Z,54.10
2022-11-30T15:18:07.474Z,71.40
2022-11-30T15:21:33.125Z,48.87
2022-11-30T15:24:56.775Z,46.90
2022-11-30T15:28:23.786Z,42.57
2022-11-30T15:31:50.757Z,46.70
2022-11-30T15:35:23.609Z,39.00
2022-11-30T15:38:52.236Z,50.77
2022-11-30T15:42:21.943Z,59.17
2022-11-30T15:45:55.757Z,49.27
2022-11-30T15:49:25.447Z,54.00
2022-11-30T15:52:51.200Z,48.33
2022-11-30T15:56:25.221Z,50.93
2022-11-30T16:00:06.472Z,38.53
2022-11-30T16:03:31.429Z,48.80
2022-11-30T16:06:55.228Z,51.07
2022-11-30T16:10:22.529Z,52.77
2022-11-30T16:13:46.743Z,50.53
2022-11-30T16:17:12.156Z,43.00
2022-11-30T16:20:37.399Z,45.50
2022-11-30T16:24:01.007Z,44.20
2022-11-30T16:27:24.796Z,49.23
2022-11-30T16:30:49.837Z,47.03
2022-11-30T16:34:13.472Z,48.67
2022-11-30T16:37:38.442Z,54.50
2022-11-30T16:41:14.973Z,52.03
2022-11-30T16:44:38.596Z,48.80
2022-11-30T16:48:02.360Z,43.00
2022-11-30T16:51:27.589Z,42.03
2022-11-30T16:54:52.483Z,51.73
2022-11-30T16:58:16.051Z,56.37
2022-11-30T17:01:42.670Z,56.27
2022-11-30T17:05:07.396Z,70.83
2022-11-30T17:08:31.155Z,84.53
2022-11-30T17:11:56.208Z,71.43
2022-11-30T17:15:22.067Z,80.70
2022-11-30T17:18:45.681Z,78.07
2022-11-30T17:22:09.328Z,78.43
2022-11-30T17:25:33.331Z,83.30
2022-11-30T17:28:58.550Z,67.30
2022-11-30T17:32:22.340Z,112.17
2022-11-30T17:35:46.083Z,85.60
2022-11-30T17:39:09.871Z,75.17
2022-11-30T17:42:33.618Z,57.57
2022-11-30T17:45:58.698Z,73.77
2022-11-30T17:49:22.470Z,91.10
2022-11-30T17:52:46.127Z,79.10
2022-11-30T17:56:11.429Z,87.80
2022-11-30T17:59:35.125Z,65.87
2022-11-30T18:03:00.225Z,63.53
2022-11-30T18:06:23.992Z,75.07
2022-11-30T18:09:47.705Z,75.90
2022-11-30T18:13:11.649Z,71.27
2022-11-30T18:16:38.018Z,72.33
2022-11-30T18:20:03.240Z,82.97
2022-11-30T18:23:26.912Z,74.93
2022-11-30T18:26:50.530Z,76.10
2022-11-30T18:30:15.208Z,100.07
2022-11-30T18:33:39.332Z,89.33
2022-11-30T18:37:04.497Z,129.70
2022-11-30T18:40:28.613Z,105.77
2022-11-30T18:43:55.586Z,119.20
2022-11-30T18:47:19.248Z,122.40
2022-11-30T18:50:43.221Z,86.90
2022-11-30T18:54:09.517Z,105.70
2022-11-30T18:57:33.160Z,119.87
2022-11-30T19:00:56.737Z,131.77
2022-11-30T19:04:20.393Z,142.97
2022-11-30T19:07:44.196Z,173.03
2022-11-30T19:11:10.618Z,189.77
2022-11-30T19:14:34.261Z,190.27
2022-11-30T19:17:58.024Z,176.90
2022-11-30T19:21:23.656Z,305.43
2022-11-30T19:24:47.750Z,301.93
2022-11-30T19:28:12.903Z,172.57
2022-11-30T19:31:36.643Z,177.03
2022-11-30T19:35:00.438Z,236.67
2022-11-30T19:38:24.261Z,178.67
2022-11-30T19:41:48.107Z,172.60
2022-11-30T19:45:13.369Z,250.17
2022-11-30T19:48:37.719Z,158.37
2022-11-30T19:52:01.578Z,160.87
2022-11-30T19:55:25.372Z,66.03
2022-11-30T19:58:49.110Z,96.77
2022-11-30T20:02:14.878Z,163.87
2022-11-30T20:05:38.856Z,121.23
2022-11-30T20:09:03.173Z,105.80
2022-11-30T20:12:26.948Z,160.70
2022-11-30T20:15:50.845Z,133.73
2022-11-30T20:19:16.701Z,125.00
2022-11-30T20:22:40.786Z,169.97
2022-11-30T20:26:13.195Z,175.07
2022-11-30T20:29:37.136Z,174.47
2022-11-30T20:33:00.713Z,135.00
2022-11-30T20:36:25.860Z,155.13
2022-11-30T20:39:49.493Z,147.87
2022-11-30T20:43:13.210Z,136.93
2022-11-30T20:46:37.460Z,89.03
2022-11-30T20:50:01.189Z,141.50
2022-11-30T20:53:26.322Z,179.20
2022-11-30T20:56:51.259Z,209.00
2022-11-30T21:00:16.081Z,179.77
2022-11-30T21:03:40.412Z,168.10
2022-11-30T21:07:04.070Z,102.33
2022-11-30T21:10:29.066Z,88.33
2022-11-30T21:13:53.532Z,116.30
2022-11-30T21:17:17.092Z,91.17
2022-11-30T21:20:40.736Z,95.57
2022-11-30T21:24:06.850Z,136.40
2022-11-30T21:27:31.772Z,160.83
2022-11-30T21:30:55.488Z,105.50
2022-11-30T21:34:19.152Z,116.07
2022-11-30T21:37:42.801Z,108.93
2022-11-30T21:41:07.286Z,101.77
2022-11-30T21:44:32.301Z,115.73
2022-11-30T21:47:56.049Z,74.40
2022-11-30T21:51:21.444Z,88.63
2022-11-30T21:54:45.197Z,91.57
2022-11-30T21:58:08.848Z,99.47
2022-11-30T22:01:35.873Z,76.50
2022-11-30T22:04:59.520Z,91.87
2022-11-30T22:08:23.226Z,98.23
2022-11-30T22:11:47.361Z,98.27
2022-11-30T22:15:11.808Z,91.23
2022-11-30T22:18:37.579Z,89.87
2022-11-30T22:22:01.220Z,88.93
2022-11-30T22:25:24.718Z,86.70
2022-11-30T22:28:50.535Z,95.13
2022-11-30T22:32:14.261Z,94.47
2022-11-30T22:35:39.293Z,73.57
2022-11-30T22:39:05.965Z,65.93
2022-11-30T22:42:29.671Z,79.27
2022-11-30T22:45:53.296Z,121.70
2022-11-30T22:49:21.100Z,85.17
2022-11-30T22:53:02.394Z,93.87
2022-11-30T22:56:28.193Z,111.97
2022-11-30T22:59:51.860Z,126.20
2022-11-30T23:03:15.721Z,147.77
2022-11-30T23:06:40.384Z,169.60
2022-11-30T23:10:06.073Z,113.87
2022-11-30T23:13:30.156Z,91.40
2022-11-30T23:16:53.761Z,162.77
2022-11-30T23:20:17.747Z,170.80
2022-11-30T23:23:41.753Z,120.27
2022-11-30T23:27:06.806Z,83.83
2022-11-30T23:30:30.629Z,57.03
2022-11-30T23:33:54.796Z,103.57
2022-11-30T23:37:18.444Z,73.27
2022-11-30T23:40:42.187Z,130.27
2022-11-30T23:44:08.218Z,77.33
2022-11-30T23:47:31.880Z,103.03
2022-11-30T23:50:56.036Z,129.93
2022-11-30T23:54:19.900Z,111.50
2022-11-30T23:57:43.493Z,65.07
